Terminal Aerodrome Forecast
Issued by NWS

Home | Current Version | Previous Version | Text Only | Print | Product List | Glossary On
Versions: 1 2 3 4 5 6 7 8 9 10 11 12 13 14 15 16 17 18 19 20 21 22 23 24 25 26 27 28 29 30 31 32 33 34
895
FTUS45 KBOU 201724
TAFAPA
TAF
KAPA 201724Z 2018/2118 22006KT P6SM FEW080 BKN120 BKN220
     FM202000 26012KT P6SM FEW130 SCT220
     FM202200 32014KT P6SM FEW080 SCT130 BKN220
     FM210200 30007KT P6SM FEW080 SCT130 BKN220
     FM210500 22009KT P6SM BKN220
     FM211500 03013G20KT P6SM BKN060 BKN110=

USA.gov is the U.S. government's official web portal to all federal, state and local government web resources and services.